Time;durP1;ratioP1;P1;durP2;ratioP2;P2;SDS_P1;SDS_P2;PMS_P1;PMS_P2;Temp;Humidity;BMP_temperature;BMP_pressure;BME280_temperature;BME280_humidity;BME280_pressure;Samples;Min_cycle;Max_cycle;Signal;HPM_P1;HPM_P2
2022/02/03 00:02:34;;;;;;;;;;;;;;;3.97;66.12;99922.68;1784940;79;20192;-78
2022/02/03 00:04:59;;;;;;;;;;;;;;;4.07;65.53;99921.48;1791815;79;20118;-78
2022/02/03 00:07:25;;;;;;;;;;;;;;;3.86;66.27;99933.95;1784759;79;20161;-78
2022/02/03 00:26:22;;;;;;;;;;;;;;;3.89;67.14;99950.70;1783006;79;20251;-78
2022/02/03 00:28:48;;;;;;;;;;;;;;;3.90;67.39;99940.62;1785498;79;20160;-80
2022/02/03 00:34:02;;;;;;;;;;;;;;;3.79;68.04;99949.73;1744479;80;20341;-78
2022/02/03 00:36:37;;;;;;;;;;;;;;;3.49;68.48;99952.91;1784465;79;20104;-78
2022/02/03 00:52:18;;;;;;;;;;;;;;;3.68;68.53;99998.03;1785750;79;20143;-78
2022/02/03 00:54:43;;;;;;;;;;;;;;;3.61;68.46;100000.29;1786153;79;20209;-78
2022/02/03 00:57:10;;;;;;;;;;;;;;;3.11;69.39;100015.28;1789281;79;20999;-78
2022/02/03 00:59:42;;;;;;;;;;;;;;;3.55;68.93;100009.41;1788985;78;20121;-78
2022/02/03 01:02:13;;;;;;;;;;;;;;;3.50;69.02;100018.05;1780837;79;20183;-78
2022/02/03 01:04:40;;;;;;;;;;;;;;;3.56;68.71;100018.91;1786372;79;20182;-78
2022/02/03 01:07:10;;;;;;;;;;;;;;;3.61;69.03;100015.13;1785991;79;20147;-78
2022/02/03 01:09:38;;;;;;;;;;;;;;;3.58;69.00;100011.78;1785808;79;21982;-78
2022/02/03 01:12:29;;;;;;;;;;;;;;;3.48;69.57;100027.80;1787979;79;20560;-78
2022/02/03 01:44:41;;;;;;;;;;;;;;;3.50;71.08;100057.70;1789058;79;20445;-78
2022/02/03 01:47:05;;;;;;;;;;;;;;;3.47;71.04;100066.58;1784796;79;20168;-78
2022/02/03 01:51:37;;;;;;;;;;;;;;;3.68;70.61;100071.16;1787221;79;20519;-81
2022/02/03 01:51:55;;;;;;;;;;;;;;;3.82;70.30;100077.48;1784261;79;20127;-81
2022/02/03 01:54:28;;;;;;;;;;;;;;;4.06;69.74;100068.77;1785860;79;20200;-80
2022/02/03 01:57:11;;;;;;;;;;;;;;;3.62;71.22;100064.63;1787206;79;20240;-78
2022/02/03 01:59:37;;;;;;;;;;;;;;;3.93;70.71;100078.84;1785181;79;20166;-80
2022/02/03 02:02:04;;;;;;;;;;;;;;;3.57;71.65;100091.08;1781882;79;21880;-78
2022/02/03 02:04:52;;;;;;;;;;;;;;;3.73;71.49;100082.12;1789427;79;20115;-78
2022/02/03 02:07:53;;;;;;;;;;;;;;;4.14;70.92;100086.00;1785851;79;20148;-79
2022/02/03 02:11:31;;;;;;;;;;;;;;;4.15;70.83;100079.84;1790491;79;20182;-79
2022/02/03 02:13:54;;;;;;;;;;;;;;;4.01;71.11;100091.78;1766297;79;20139;-78
2022/02/03 02:16:17;;;;;;;;;;;;;;;3.49;73.32;100098.62;1779935;79;20178;-78
2022/02/03 02:37:54;;;;;;;;;;;;;;;3.32;76.58;100085.97;1786798;79;20175;-79
2022/02/03 02:43:14;;;;;;;;;;;;;;;3.64;76.07;100095.85;1785523;79;20136;-79
2022/02/03 02:46:08;;;;;;;;;;;;;;;3.67;76.33;100093.02;1787964;79;20155;-78
2022/02/03 02:49:12;;;;;;;;;;;;;;;3.43;77.34;100106.89;1786168;79;20187;-78
2022/02/03 02:51:40;;;;;;;;;;;;;;;3.27;78.64;100124.63;1716424;81;20609;-78
2022/02/03 02:54:39;;;;;;;;;;;;;;;3.63;77.69;100107.23;1764237;79;20194;-79
2022/02/03 03:00:40;;;;;;;;;;;;;;;3.45;78.82;100118.08;1782990;79;20092;-79
2022/02/03 03:34:09;;;;;;;;;;;;;;;3.44;79.98;100192.11;1792979;79;20518;-79
2022/02/03 03:35:44;;;;;;;;;;;;;;;3.45;80.28;100170.73;1770284;79;20130;-79
2022/02/03 03:38:08;;;;;;;;;;;;;;;3.67;79.67;100187.03;1768607;79;20691;-78
2022/02/03 03:40:35;;;;;;;;;;;;;;;3.89;78.74;100176.66;1788414;79;20910;-78
2022/02/03 03:43:09;;;;;;;;;;;;;;;3.71;79.31;100183.23;1783393;79;20182;-78
2022/02/03 03:45:35;;;;;;;;;;;;;;;3.69;79.50;100185.13;1780891;79;20203;-78
2022/02/03 03:48:05;;;;;;;;;;;;;;;3.73;79.23;100193.11;1785166;79;20165;-78
2022/02/03 03:50:33;;;;;;;;;;;;;;;3.75;79.26;100202.97;1787514;79;21194;-78
2022/02/03 03:53:05;;;;;;;;;;;;;;;3.67;79.76;100197.47;1779998;79;20120;-78
2022/02/03 03:55:59;;;;;;;;;;;;;;;3.76;79.45;100189.80;1783588;79;20144;-80
2022/02/03 03:59:48;;;;;;;;;;;;;;;3.84;79.01;100193.16;1783895;79;20460;-80
2022/02/03 04:38:22;;;;;;;;;;;;;;;3.10;83.88;100232.31;1775982;79;20144;-79
2022/02/03 04:41:08;;;;;;;;;;;;;;;3.40;82.92;100235.02;1784065;79;20133;-79
2022/02/03 04:55:32;;;;;;;;;;;;;;;3.51;83.12;100235.12;1786791;79;20279;-79
2022/02/03 05:03:20;;;;;;;;;;;;;;;3.64;83.16;100240.78;1782679;79;20124;-78
2022/02/03 05:09:38;;;;;;;;;;;;;;;3.68;82.90;100239.15;1781460;78;20165;-79
2022/02/03 05:12:13;;;;;;;;;;;;;;;3.73;82.53;100246.17;1780160;78;20137;-79
2022/02/03 05:18:16;;;;;;;;;;;;;;;3.57;82.92;100249.05;1785095;79;20152;-79
2022/02/03 05:20:57;;;;;;;;;;;;;;;3.62;82.90;100251.78;1782966;79;20131;-79
2022/02/03 05:46:28;;;;;;;;;;;;;;;3.61;82.63;100261.41;1790647;79;20102;-79
2022/02/03 06:05:28;;;;;;;;;;;;;;;3.83;81.91;100284.22;1785213;79;20131;-80
2022/02/03 06:15:16;;;;;;;;;;;;;;;4.01;81.28;100287.75;1783194;79;20185;-79
2022/02/03 06:23:52;;;;;;;;;;;;;;;3.74;82.16;100302.70;1789011;79;20121;-79
2022/02/03 06:29:13;;;;;;;;;;;;;;;4.00;81.13;100291.33;1788250;79;20192;-78
2022/02/03 06:31:42;;;;;;;;;;;;;;;3.99;81.23;100301.41;1786994;79;20173;-78
2022/02/03 06:34:07;;;;;;;;;;;;;;;4.11;80.75;100310.50;1779392;79;20315;-79
2022/02/03 06:36:33;;;;;;;;;;;;;;;4.07;80.78;100312.13;1781625;79;21960;-78
2022/02/03 06:38:59;;;;;;;;;;;;;;;4.09;80.60;100315.49;1782663;79;20187;-78
2022/02/03 06:41:24;;;;;;;;;;;;;;;4.00;80.91;100323.99;1778460;79;20430;-79
2022/02/03 06:43:50;;;;;;;;;;;;;;;4.05;81.08;100322.70;1782445;79;20175;-79
2022/02/03 06:46:16;;;;;;;;;;;;;;;4.03;80.98;100329.00;1782787;79;20592;-78
2022/02/03 06:48:46;;;;;;;;;;;;;;;3.94;81.39;100335.70;1780385;79;21120;-78
2022/02/03 06:51:18;;;;;;;;;;;;;;;3.84;81.83;100339.89;1779574;79;20132;-79
2022/02/03 06:53:40;;;;;;;;;;;;;;;3.82;82.17;100339.17;1785303;78;20192;-79
2022/02/03 06:56:12;;;;;;;;;;;;;;;3.83;82.13;100333.84;1781663;78;20602;-78
2022/02/03 06:58:38;;;;;;;;;;;;;;;3.93;81.93;100345.33;1776209;79;20318;-79
2022/02/03 07:01:12;;;;;;;;;;;;;;;4.01;81.96;100352.63;1780751;79;20187;-79
2022/02/03 07:03:37;;;;;;;;;;;;;;;4.14;81.60;100347.34;1781041;79;20128;-79
2022/02/03 07:06:00;;;;;;;;;;;;;;;4.11;81.63;100353.62;1782995;79;20160;-79
2022/02/03 07:08:27;;;;;;;;;;;;;;;4.04;81.98;100354.16;1789099;79;20164;-79
2022/02/03 07:10:55;;;;;;;;;;;;;;;3.79;83.02;100358.50;1781510;79;20165;-79
2022/02/03 07:13:20;;;;;;;;;;;;;;;3.82;83.25;100364.81;1783452;79;20112;-80
2022/02/03 07:15:46;;;;;;;;;;;;;;;3.47;84.92;100360.28;1779701;79;20155;-78
2022/02/03 07:18:11;;;;;;;;;;;;;;;3.88;83.62;100356.55;1788741;79;20132;-80
2022/02/03 07:20:37;;;;;;;;;;;;;;;3.90;83.82;100358.61;1778367;79;20156;-80
2022/02/03 07:23:05;;;;;;;;;;;;;;;3.87;83.38;100360.13;1784397;79;20826;-80
2022/02/03 07:25:31;;;;;;;;;;;;;;;3.81;84.17;100361.86;1789098;79;21097;-80
2022/02/03 07:27:57;;;;;;;;;;;;;;;3.87;84.15;100352.73;1787600;79;20253;-79
2022/02/03 07:30:22;;;;;;;;;;;;;;;3.97;83.87;100363.40;1786742;79;20192;-79
2022/02/03 07:32:54;;;;;;;;;;;;;;;3.91;83.69;100360.25;1789335;79;20130;-80
2022/02/03 07:35:16;;;;;;;;;;;;;;;3.98;83.65;100366.36;1786756;79;20151;-80
2022/02/03 07:37:46;;;;;;;;;;;;;;;3.87;83.30;100361.44;1785183;79;21093;-79
2022/02/03 07:40:12;;;;;;;;;;;;;;;3.77;83.23;100360.39;1784458;79;20127;-79
2022/02/03 07:42:39;;;;;;;;;;;;;;;3.50;83.40;100373.60;1783504;79;20183;-79
2022/02/03 07:45:05;;;;;;;;;;;;;;;3.54;83.39;100375.91;1782791;79;20190;-79
2022/02/03 07:47:31;;;;;;;;;;;;;;;3.71;82.63;100377.80;1788472;79;20179;-80
2022/02/03 07:49:56;;;;;;;;;;;;;;;3.73;82.47;100382.47;1787269;78;21867;-79
2022/02/03 07:52:22;;;;;;;;;;;;;;;3.34;83.40;100398.14;1785462;79;20143;-79
2022/02/03 07:54:48;;;;;;;;;;;;;;;3.78;81.79;100390.81;1786104;79;20603;-79
2022/02/03 07:57:14;;;;;;;;;;;;;;;3.75;82.04;100404.08;1786113;79;20197;-80
2022/02/03 07:59:40;;;;;;;;;;;;;;;3.87;81.56;100404.98;1785512;79;20352;-79
2022/02/03 08:02:06;;;;;;;;;;;;;;;3.72;82.05;100402.50;1785652;79;22864;-79
2022/02/03 08:04:34;;;;;;;;;;;;;;;3.78;81.64;100396.03;1784776;79;20166;-79
2022/02/03 08:07:00;;;;;;;;;;;;;;;3.74;81.76;100395.42;1788208;79;20160;-80
2022/02/03 08:12:13;;;;;;;;;;;;;;;3.86;81.73;100378.05;1787121;79;20163;-79
2022/02/03 08:14:47;;;;;;;;;;;;;;;3.75;81.68;100391.02;1788514;79;21044;-80
2022/02/03 08:17:14;;;;;;;;;;;;;;;3.73;82.05;100381.16;1785069;79;20127;-79
2022/02/03 08:19:43;;;;;;;;;;;;;;;4.17;80.66;100381.11;1790178;79;20501;-79
2022/02/03 08:22:06;;;;;;;;;;;;;;;4.17;79.69;100395.48;1786363;79;20159;-79
2022/02/03 08:24:43;;;;;;;;;;;;;;;3.90;80.87;100397.80;1785473;79;20133;-80
2022/02/03 08:27:10;;;;;;;;;;;;;;;3.77;80.10;100385.21;1788515;78;20623;-80
2022/02/03 08:32:01;;;;;;;;;;;;;;;4.07;79.62;100387.92;1786176;79;20216;-78
2022/02/03 08:34:46;;;;;;;;;;;;;;;4.13;79.01;100387.48;1786377;79;20425;-78
2022/02/03 08:37:04;;;;;;;;;;;;;;;4.21;78.53;100400.02;1787665;79;20102;-78
2022/02/03 08:39:34;;;;;;;;;;;;;;;4.36;77.08;100396.30;1788956;79;21150;-78
2022/02/03 08:41:57;;;;;;;;;;;;;;;4.02;77.79;100385.63;1783286;79;20466;-79
2022/02/03 08:44:22;;;;;;;;;;;;;;;3.94;77.82;100388.78;1784003;79;20164;-79
2022/02/03 08:46:48;;;;;;;;;;;;;;;4.16;77.54;100380.73;1787134;79;20123;-79
2022/02/03 08:49:14;;;;;;;;;;;;;;;4.24;76.99;100387.58;1784854;79;20134;-79
2022/02/03 08:51:40;;;;;;;;;;;;;;;4.28;76.06;100402.08;1785579;79;21060;-79
2022/02/03 08:54:10;;;;;;;;;;;;;;;4.33;75.43;100395.22;1783403;79;20155;-79
2022/02/03 08:56:44;;;;;;;;;;;;;;;4.05;74.72;100389.81;1784631;79;20166;-79
2022/02/03 09:38:51;;;;;;;;;;;;;;;4.72;67.24;100387.22;1785113;79;20114;-80
2022/02/03 09:41:25;;;;;;;;;;;;;;;4.68;66.84;100380.90;1787335;79;20155;-79
2022/02/03 09:59:34;;;;;;;;;;;;;;;4.57;66.00;100365.16;1785070;78;20183;-80
2022/02/03 10:01:55;;;;;;;;;;;;;;;4.45;66.42;100373.42;1784158;79;20121;-79
2022/02/03 10:04:45;;;;;;;;;;;;;;;4.76;65.87;100374.28;1757246;79;20887;-79
2022/02/03 10:07:17;;;;;;;;;;;;;;;4.74;66.01;100373.09;1783698;79;20143;-80
2022/02/03 10:09:40;;;;;;;;;;;;;;;4.92;65.82;100366.95;1785844;79;20175;-81
2022/02/03 10:12:07;;;;;;;;;;;;;;;4.75;65.89;100365.58;1785865;79;20623;-79
2022/02/03 10:14:38;;;;;;;;;;;;;;;4.86;65.48;100364.78;1786114;79;20137;-78
2022/02/03 10:17:04;;;;;;;;;;;;;;;4.88;65.27;100366.83;1789091;79;20289;-78
2022/02/03 10:19:35;;;;;;;;;;;;;;;5.00;64.84;100362.00;1784604;79;20172;-78
2022/02/03 10:21:58;;;;;;;;;;;;;;;5.16;64.54;100363.46;1786707;79;20140;-78
2022/02/03 10:24:29;;;;;;;;;;;;;;;5.25;64.26;100354.91;1788083;79;20271;-78
2022/02/03 10:26:52;;;;;;;;;;;;;;;5.22;64.07;100363.00;1785656;79;20131;-79
2022/02/03 10:29:20;;;;;;;;;;;;;;;4.80;64.53;100365.23;1787020;79;20174;-79
2022/02/03 10:31:46;;;;;;;;;;;;;;;5.00;64.25;100368.99;1786995;79;20156;-79
2022/02/03 10:34:18;;;;;;;;;;;;;;;4.81;64.79;100356.45;1785872;79;21124;-79
2022/02/03 10:44:58;;;;;;;;;;;;;;;4.98;64.37;100361.25;1759803;79;20137;-79
2022/02/03 10:48:09;;;;;;;;;;;;;;;4.99;64.48;100353.77;1787993;79;20383;-78
2022/02/03 10:50:05;;;;;;;;;;;;;;;5.08;64.03;100353.56;1773525;79;20140;-79
2022/02/03 10:52:35;;;;;;;;;;;;;;;4.94;64.14;100349.37;1783739;79;20076;-80
2022/02/03 10:55:05;;;;;;;;;;;;;;;5.07;63.92;100347.96;1787289;78;20485;-79
2022/02/03 10:57:35;;;;;;;;;;;;;;;4.82;64.66;100358.13;1786836;79;20135;-79
2022/02/03 11:12:56;;;;;;;;;;;;;;;5.30;63.47;100330.51;1756149;79;20428;-81
2022/02/03 11:15:24;;;;;;;;;;;;;;;5.39;63.12;100323.71;1784792;79;20145;-81
2022/02/03 11:17:50;;;;;;;;;;;;;;;5.08;63.78;100331.77;1789472;79;20167;-79
2022/02/03 11:20:21;;;;;;;;;;;;;;;5.16;64.06;100328.12;1788393;79;20161;-79
2022/02/03 11:22:55;;;;;;;;;;;;;;;5.43;63.61;100325.64;1785872;78;20219;-78
2022/02/03 11:25:23;;;;;;;;;;;;;;;5.47;63.65;100325.28;1763474;79;40089;-80
2022/02/03 11:31:02;;;;;;;;;;;;;;;5.27;63.98;100325.99;1795518;79;20197;-80
2022/02/03 11:54:42;;;;;;;;;;;;;;;5.90;65.00;100290.47;1794679;79;20164;-78
2022/02/03 12:02:38;;;;;;;;;;;;;;;6.05;65.08;100284.98;1795891;79;20163;-78
2022/02/03 12:11:01;;;;;;;;;;;;;;;6.16;65.17;100279.69;1789983;79;20991;-79
2022/02/03 12:13:54;;;;;;;;;;;;;;;6.33;65.20;100280.94;1790091;79;20155;-79
2022/02/03 12:16:14;;;;;;;;;;;;;;;6.73;64.36;100277.66;1788726;79;20983;-79
2022/02/03 12:18:57;;;;;;;;;;;;;;;6.60;64.02;100269.98;1791098;78;20127;-79
2022/02/03 12:21:11;;;;;;;;;;;;;;;6.52;63.78;100272.38;1793953;79;20207;-78
2022/02/03 12:26:22;;;;;;;;;;;;;;;6.70;64.37;100262.16;1796340;79;20218;-79
2022/02/03 12:28:53;;;;;;;;;;;;;;;6.60;64.00;100261.25;1795830;79;20131;-80
2022/02/03 12:39:10;;;;;;;;;;;;;;;6.09;64.54;100264.09;1794868;79;20174;-78
2022/02/03 12:42:01;;;;;;;;;;;;;;;6.15;64.76;100260.16;1794711;79;20138;-78
2022/02/03 12:44:21;;;;;;;;;;;;;;;6.02;64.78;100261.63;1796850;79;20110;-78
2022/02/03 12:46:42;;;;;;;;;;;;;;;5.65;66.28;100254.88;1798704;78;20169;-79
2022/02/03 12:49:08;;;;;;;;;;;;;;;5.86;65.96;100262.01;1798267;79;20465;-80
2022/02/03 12:51:34;;;;;;;;;;;;;;;5.93;65.91;100264.47;1794506;79;20365;-80
2022/02/03 12:54:12;;;;;;;;;;;;;;;5.45;67.33;100277.89;1797177;79;20151;-80
2022/02/03 12:56:38;;;;;;;;;;;;;;;5.66;67.17;100276.20;1796064;79;21908;-80
2022/02/03 12:59:04;;;;;;;;;;;;;;;5.85;66.76;100261.16;1795591;79;20135;-80
2022/02/03 13:01:33;;;;;;;;;;;;;;;6.10;66.23;100256.10;1798460;78;20769;-80
2022/02/03 13:04:00;;;;;;;;;;;;;;;6.41;65.60;100256.22;1794515;79;20194;-80
2022/02/03 13:06:28;;;;;;;;;;;;;;;6.50;65.27;100244.63;1796865;79;20126;-79
2022/02/03 13:08:58;;;;;;;;;;;;;;;5.88;66.54;100251.73;1796531;79;22640;-80
2022/02/03 13:11:38;;;;;;;;;;;;;;;5.96;67.06;100247.19;1796497;79;20127;-80
2022/02/03 13:14:10;;;;;;;;;;;;;;;6.44;66.15;100248.09;1794013;79;20461;-79
2022/02/03 13:16:31;;;;;;;;;;;;;;;6.49;65.73;100245.58;1795208;79;20106;-78
2022/02/03 13:19:13;;;;;;;;;;;;;;;6.50;65.81;100249.88;1799100;78;20162;-78
2022/02/03 13:26:53;;;;;;;;;;;;;;;6.74;65.47;100245.67;1797774;79;20604;-80
2022/02/03 13:29:30;;;;;;;;;;;;;;;6.27;67.06;100252.11;1798152;79;20243;-79
2022/02/03 13:31:57;;;;;;;;;;;;;;;6.21;67.55;100254.41;1793595;79;20137;-79
2022/02/03 13:34:32;;;;;;;;;;;;;;;6.61;66.69;100247.19;1798142;79;20144;-78
2022/02/03 13:37:01;;;;;;;;;;;;;;;6.82;66.51;100244.53;1793704;79;20596;-80
2022/02/03 13:39:28;;;;;;;;;;;;;;;6.79;66.54;100253.52;1797732;79;20163;-78
2022/02/03 13:42:03;;;;;;;;;;;;;;;6.69;66.71;100249.17;1796831;79;20169;-79
2022/02/03 13:44:29;;;;;;;;;;;;;;;6.72;67.50;100250.23;1797328;78;20171;-79
2022/02/03 13:46:55;;;;;;;;;;;;;;;6.42;69.83;100252.65;1795713;78;21067;-79
2022/02/03 13:49:22;;;;;;;;;;;;;;;6.43;70.75;100259.56;1766848;79;20447;-79
2022/02/03 13:52:01;;;;;;;;;;;;;;;6.14;73.15;100259.78;1796999;78;20074;-79
2022/02/03 14:12:35;;;;;;;;;;;;;;;6.26;76.08;100236.50;1796700;78;20190;-78
2022/02/03 14:20:03;;;;;;;;;;;;;;;6.41;77.00;100226.05;1756626;79;20181;-78
2022/02/03 14:22:00;;;;;;;;;;;;;;;6.42;76.70;100222.48;1798239;78;20990;-79
2022/02/03 14:29:51;;;;;;;;;;;;;;;6.73;75.31;100227.79;1799379;79;20465;-78
2022/02/03 14:32:20;;;;;;;;;;;;;;;6.76;75.06;100224.09;1794661;79;20151;-78
2022/02/03 14:34:43;;;;;;;;;;;;;;;6.75;74.80;100219.78;1797291;78;20126;-78
2022/02/03 14:37:30;;;;;;;;;;;;;;;6.62;74.73;100222.12;1799758;78;20136;-78
2022/02/03 14:42:22;;;;;;;;;;;;;;;6.78;74.08;100225.59;1797948;79;20161;-78
2022/02/03 14:44:48;;;;;;;;;;;;;;;6.66;74.35;100221.38;1796897;78;20121;-79
2022/02/03 14:47:14;;;;;;;;;;;;;;;6.78;74.13;100219.04;1800707;78;20198;-78
2022/02/03 14:49:43;;;;;;;;;;;;;;;6.85;73.88;100225.08;1796011;79;20152;-80
2022/02/03 14:52:24;;;;;;;;;;;;;;;6.46;74.72;100225.67;1796434;78;20086;-79
2022/02/03 15:00:10;;;;;;;;;;;;;;;6.60;74.57;100219.27;1794686;79;20596;-79
2022/02/03 15:02:36;;;;;;;;;;;;;;;6.67;74.53;100223.06;1794332;79;20162;-79
2022/02/03 15:05:07;;;;;;;;;;;;;;;6.70;74.37;100217.55;1797112;78;22015;-79
2022/02/03 15:07:30;;;;;;;;;;;;;;;6.66;74.27;100217.45;1792516;79;20113;-78
2022/02/03 15:12:55;;;;;;;;;;;;;;;6.70;74.20;100225.42;1795729;79;20529;-80
2022/02/03 15:15:09;;;;;;;;;;;;;;;6.23;74.54;100230.19;1796704;79;20490;-79
2022/02/03 15:17:35;;;;;;;;;;;;;;;6.37;74.75;100235.16;1796085;79;21287;-80
2022/02/03 15:20:04;;;;;;;;;;;;;;;6.60;74.16;100232.39;1794554;79;20131;-80
2022/02/03 15:22:29;;;;;;;;;;;;;;;6.67;73.81;100234.86;1796288;79;20142;-80
2022/02/03 15:24:57;;;;;;;;;;;;;;;6.55;73.84;100230.64;1796197;79;20722;-80
2022/02/03 15:27:22;;;;;;;;;;;;;;;6.44;74.23;100228.91;1798013;78;20475;-80
2022/02/03 15:29:50;;;;;;;;;;;;;;;6.62;73.88;100226.55;1798608;78;21008;-80
2022/02/03 15:32:16;;;;;;;;;;;;;;;6.54;73.64;100219.33;1799974;79;20304;-80
2022/02/03 15:34:41;;;;;;;;;;;;;;;6.70;73.38;100216.73;1798295;79;20333;-80
2022/02/03 15:37:13;;;;;;;;;;;;;;;6.64;73.17;100215.44;1798108;79;20217;-80
2022/02/03 15:39:41;;;;;;;;;;;;;;;6.62;73.22;100213.44;1797017;79;20163;-80
2022/02/03 15:42:03;;;;;;;;;;;;;;;6.55;73.48;100213.59;1797410;78;20122;-80
2022/02/03 15:44:36;;;;;;;;;;;;;;;6.65;73.47;100209.25;1795557;78;20142;-80
2022/02/03 15:47:02;;;;;;;;;;;;;;;6.49;73.58;100208.86;1803201;78;20129;-80
2022/02/03 16:18:36;;;;;;;;;;;;;;;6.64;74.24;100189.20;1752180;79;20115;-78
2022/02/03 16:21:15;;;;;;;;;;;;;;;6.76;74.12;100188.16;1799807;79;20979;-78
2022/02/03 16:24:00;;;;;;;;;;;;;;;6.67;74.20;100195.50;1796230;78;20504;-81
2022/02/03 16:40:56;;;;;;;;;;;;;;;6.91;73.53;100187.81;1783314;79;20222;-80
2022/02/03 16:53:00;;;;;;;;;;;;;;;6.96;73.45;100175.11;1782271;78;20283;-78
2022/02/03 16:55:32;;;;;;;;;;;;;;;6.83;73.85;100175.34;1780901;79;20777;-78
2022/02/03 16:57:56;;;;;;;;;;;;;;;6.82;74.15;100165.79;1780942;79;20559;-79
2022/02/03 17:00:22;;;;;;;;;;;;;;;6.72;74.46;100165.76;1782747;79;20235;-78
2022/02/03 17:02:48;;;;;;;;;;;;;;;6.92;74.05;100156.17;1792295;79;20635;-79
2022/02/03 17:05:14;;;;;;;;;;;;;;;6.96;73.97;100164.61;1788859;79;20102;-79
2022/02/03 17:07:40;;;;;;;;;;;;;;;6.78;74.26;100169.17;1788026;79;20120;-78
2022/02/03 17:10:07;;;;;;;;;;;;;;;6.86;74.22;100161.12;1786664;79;20168;-78
2022/02/03 17:12:32;;;;;;;;;;;;;;;6.78;74.39;100162.61;1788544;79;21046;-78
2022/02/03 17:14:58;;;;;;;;;;;;;;;6.81;74.38;100149.22;1784484;79;20453;-81
2022/02/03 17:17:25;;;;;;;;;;;;;;;6.77;74.50;100151.75;1783331;79;20137;-80
2022/02/03 17:19:50;;;;;;;;;;;;;;;6.85;74.07;100151.58;1785164;79;21617;-78
2022/02/03 17:22:19;;;;;;;;;;;;;;;6.95;74.15;100149.84;1785775;79;20140;-81
2022/02/03 17:24:59;;;;;;;;;;;;;;;6.95;74.09;100149.84;1781187;79;20120;-80
2022/02/03 17:27:27;;;;;;;;;;;;;;;6.98;73.60;100145.64;1798429;79;20195;-80
2022/02/03 18:30:53;;;;;;;;;;;;;;;7.21;72.85;100099.45;1737577;79;21529;-79
2022/02/03 18:47:34;;;;;;;;;;;;;;;7.35;72.29;100078.06;1797658;78;20135;-80
2022/02/03 18:49:54;;;;;;;;;;;;;;;7.31;72.68;100075.34;1800798;79;20161;-80
2022/02/03 18:52:06;;;;;;;;;;;;;;;7.27;72.69;100072.64;1796219;78;20102;-78
2022/02/03 18:54:28;;;;;;;;;;;;;;;7.25;72.77;100074.58;1793827;79;20638;-78
2022/02/03 18:57:13;;;;;;;;;;;;;;;7.37;72.44;100069.55;1799968;79;20187;-79
2022/02/03 18:59:57;;;;;;;;;;;;;;;7.35;72.54;100075.44;1796924;78;20220;-80
2022/02/03 20:06:55;;;;;;;;;;;;;;;7.31;72.04;100014.44;1795545;79;20436;-79
2022/02/03 20:09:24;;;;;;;;;;;;;;;7.30;71.88;100013.27;1793223;79;20163;-79
2022/02/03 20:11:39;;;;;;;;;;;;;;;7.28;71.72;100012.59;1796566;79;20484;-79
2022/02/03 20:14:14;;;;;;;;;;;;;;;7.35;71.72;100012.39;1799641;79;20180;-78
2022/02/03 20:16:43;;;;;;;;;;;;;;;7.36;71.61;100008.31;1796877;79;21131;-78
2022/02/03 20:19:09;;;;;;;;;;;;;;;7.33;71.71;100011.67;1796613;79;20179;-78
2022/02/03 20:21:36;;;;;;;;;;;;;;;7.34;71.48;100007.59;1794800;78;20166;-78
2022/02/03 20:24:04;;;;;;;;;;;;;;;7.25;71.68;100001.05;1800644;78;20195;-78
2022/02/03 20:26:30;;;;;;;;;;;;;;;7.28;71.60;100000.77;1800793;78;20166;-78
2022/02/03 20:28:55;;;;;;;;;;;;;;;7.39;71.44;99997.98;1788982;78;21904;-80
2022/02/03 20:31:21;;;;;;;;;;;;;;;7.44;71.10;99995.80;1788561;78;20149;-81
2022/02/03 20:33:46;;;;;;;;;;;;;;;7.46;70.99;99996.47;1786842;79;20128;-82
2022/02/03 20:36:12;;;;;;;;;;;;;;;7.44;71.01;100001.52;1787405;78;20149;-79
2022/02/03 20:38:38;;;;;;;;;;;;;;;7.39;71.10;100001.92;1783311;78;20212;-79
2022/02/03 20:41:03;;;;;;;;;;;;;;;7.49;70.83;100000.13;1783863;78;21144;-80
2022/02/03 20:43:29;;;;;;;;;;;;;;;7.54;70.70;99997.91;1790863;79;20114;-80
2022/02/03 20:45:54;;;;;;;;;;;;;;;7.46;70.74;99999.59;1784677;78;20747;-80
2022/02/03 20:48:20;;;;;;;;;;;;;;;7.49;70.60;99993.56;1782339;78;20113;-80
2022/02/03 20:50:46;;;;;;;;;;;;;;;7.49;70.43;99992.25;1784331;78;20161;-80
2022/02/03 20:53:13;;;;;;;;;;;;;;;7.47;70.46;99991.58;1785082;79;21040;-80
2022/02/03 20:55:41;;;;;;;;;;;;;;;7.45;70.34;99994.80;1778424;79;20167;-80
2022/02/03 20:58:11;;;;;;;;;;;;;;;7.45;70.44;99993.98;1781141;79;20193;-81
2022/02/03 21:00:48;;;;;;;;;;;;;;;7.47;70.40;99990.72;1785318;79;20149;-82
2022/02/03 21:03:38;;;;;;;;;;;;;;;7.40;70.54;99991.77;1784086;78;20501;-80
2022/02/03 21:05:40;;;;;;;;;;;;;;;7.18;70.94;99992.40;1779723;79;20641;-83
2022/02/03 21:08:05;;;;;;;;;;;;;;;7.21;70.86;99994.39;1760663;79;20502;-82
2022/02/03 21:10:32;;;;;;;;;;;;;;;7.24;71.05;99995.43;1790394;78;20164;-80
2022/02/03 21:12:57;;;;;;;;;;;;;;;7.16;70.82;99989.09;1788122;78;20177;-78
2022/02/03 21:15:27;;;;;;;;;;;;;;;7.10;71.06;99988.33;1788064;79;20146;-77
2022/02/03 21:17:52;;;;;;;;;;;;;;;7.07;71.08;99991.70;1784670;79;20136;-81
2022/02/03 21:20:20;;;;;;;;;;;;;;;6.92;71.77;99995.22;1787585;77;20319;-78
2022/02/03 21:22:45;;;;;;;;;;;;;;;6.80;71.97;99995.33;1783839;79;20300;-77
2022/02/03 21:25:37;;;;;;;;;;;;;;;6.63;72.41;99992.05;1788494;78;20794;-79
2022/02/03 21:27:45;;;;;;;;;;;;;;;6.66;72.93;99987.84;1788181;79;20122;-81
2022/02/03 21:30:12;;;;;;;;;;;;;;;6.50;73.20;99995.41;1795202;79;21134;-82
2022/02/03 21:32:37;;;;;;;;;;;;;;;6.49;73.43;99991.13;1796580;78;20219;-79
2022/02/03 21:35:06;;;;;;;;;;;;;;;6.50;73.34;99987.55;1794907;79;21468;-81
2022/02/03 21:37:32;;;;;;;;;;;;;;;6.65;72.79;99983.58;1799620;78;20211;-78
2022/02/03 21:39:57;;;;;;;;;;;;;;;6.61;73.09;99983.00;1796778;78;20159;-79
2022/02/03 21:42:23;;;;;;;;;;;;;;;6.38;73.47;99992.87;1792068;79;21102;-79
2022/02/03 21:44:49;;;;;;;;;;;;;;;6.25;73.99;99983.11;1798617;78;20270;-81
2022/02/03 21:47:15;;;;;;;;;;;;;;;6.13;74.47;99989.41;1802213;78;20709;-79
2022/02/03 21:49:40;;;;;;;;;;;;;;;6.24;74.30;99991.94;1799247;79;20786;-79
2022/02/03 21:52:19;;;;;;;;;;;;;;;6.15;74.98;99986.17;1799060;79;20187;-82
2022/02/03 21:54:38;;;;;;;;;;;;;;;6.42;74.15;99981.16;1792437;78;20220;-82
2022/02/03 21:57:04;;;;;;;;;;;;;;;6.42;73.66;99985.09;1797685;79;20444;-79
2022/02/03 21:59:30;;;;;;;;;;;;;;;6.47;73.36;99984.20;1795839;79;20181;-79
2022/02/03 22:01:55;;;;;;;;;;;;;;;6.61;72.98;99981.69;1798994;78;21304;-80
2022/02/03 22:04:21;;;;;;;;;;;;;;;6.71;72.65;99977.80;1796213;78;20146;-79
2022/02/03 22:06:47;;;;;;;;;;;;;;;6.66;72.69;99976.03;1796381;79;21079;-78
2022/02/03 22:09:13;;;;;;;;;;;;;;;6.68;72.87;99978.06;1790213;79;20159;-80
2022/02/03 22:11:39;;;;;;;;;;;;;;;6.71;72.77;99975.17;1797631;78;20204;-79
2022/02/03 22:14:05;;;;;;;;;;;;;;;6.63;72.74;99973.22;1798768;79;20242;-80
2022/02/03 22:16:32;;;;;;;;;;;;;;;6.81;72.37;99979.93;1793642;78;20199;-80
2022/02/03 22:18:59;;;;;;;;;;;;;;;6.85;72.18;99965.22;1796410;78;21187;-81
2022/02/03 22:21:47;;;;;;;;;;;;;;;6.81;72.12;99968.13;1798039;79;20396;-80
2022/02/03 22:41:09;;;;;;;;;;;;;;;7.00;71.36;99948.11;1784200;79;20202;-79
2022/02/03 22:45:22;;;;;;;;;;;;;;;7.02;71.00;99938.28;1773689;79;20208;-80
2022/02/03 22:50:20;;;;;;;;;;;;;;;7.05;71.08;99943.26;1784809;78;20605;-79
2022/02/03 22:52:45;;;;;;;;;;;;;;;7.04;71.07;99931.58;1781409;79;20152;-82
2022/02/03 22:55:11;;;;;;;;;;;;;;;7.07;70.88;99938.72;1783265;79;20150;-82
2022/02/03 22:57:37;;;;;;;;;;;;;;;6.95;71.23;99936.70;1786532;79;21055;-82
2022/02/03 23:00:20;;;;;;;;;;;;;;;7.04;71.18;99935.52;1784935;79;20466;-81
2022/02/03 23:02:43;;;;;;;;;;;;;;;7.06;71.02;99935.73;1787721;78;20122;-80
2022/02/03 23:05:10;;;;;;;;;;;;;;;7.02;71.02;99934.34;1787678;78;20320;-80
2022/02/03 23:12:45;;;;;;;;;;;;;;;6.95;70.83;99924.08;1778387;79;20100;-79
2022/02/03 23:17:45;;;;;;;;;;;;;;;6.99;70.87;99927.59;1785292;79;20297;-80
2022/02/03 23:20:12;;;;;;;;;;;;;;;6.82;70.98;99929.11;1784824;78;20132;-78
2022/02/03 23:22:36;;;;;;;;;;;;;;;6.70;71.13;99927.58;1783900;79;20692;-80
2022/02/03 23:25:02;;;;;;;;;;;;;;;6.75;71.20;99924.05;1780572;78;20611;-81
2022/02/03 23:29:56;;;;;;;;;;;;;;;6.85;71.06;99914.05;1782882;79;20780;-79